FMEP/ZSE METAR and TAF weather

Enter ICAO airport designator
Station Type Date Time Source
FMEP METAR 2021/08/05 05:30 UTC NOAA

FMEP 050530Z AUTO 12022KT 9999 FEW025 21/15 Q1026 TEMPO 12025G35KT


Station Type Date Time Source
FMEP Decoded METAR 2021/08/05 05:30 UTC NOAA

Saint-Pierre, Reunion (FMEP) 21-20S 055-29E 53M
Aug 05, 2021 - 01:30 AM EDT / 2021.08.05 0530 UTC
Wind: from the ESE (120 degrees) at 25 MPH (22 KT):0
Visibility: greater than 7 mile(s):0
Sky conditions: mostly clear
Temperature: 69 F (21 C)
Dew Point: 59 F (15 C)
Relative Humidity: 68%
Pressure (altimeter): 30.30 in. Hg (1026 hPa)
ob: FMEP 050530Z AUTO 12022KT 9999 FEW025 21/15 Q1026 TEMPO 12025G35KT
cycle: 5

Station Type Date Time Source
FMEP TAF 2020/08/08 06:00 UTC NOAA

TAF FMEP 080500Z 0806/0815 27010KT 9999 FEW030

Example: see airport list